Airfield :
LOGIN :

Register | Disclaimer

   EN    FR    IT 

 










Legend :    VFR   Marginal VFR   IFR   Intensive IFR   Very Intensive IFR
Visi :
Ceiling :
>= 8 km
>= 3000ft
5 to 8 km
1000 to 3000 ft
1500m to 5 km
500 to 1000 ft
800 to 1500m
200 to 500 ft
< 800m
< 200 ft
Symbols :   Thunderstorms  Fog  Heavy snow  Heavy precipitations  Wind > 20 kt
SIGMETs :     Misc.  Thunderstorms  Icing  Turbulence  Mountain Waves  Volcanic Ashes






- Airport Elevation : 233 ft
- IATA code : REU


LERS - Reus Tarragona

CURRENT METAR :
  • 241730Z 26010KT 9999 FEW040 13/04 Q1010

EXPIRED METARs :
  • 241700Z 26013KT 9999 FEW040 14/03 Q1009
  • 241630Z 28013KT 9999 FEW040 14/02 Q1009
  • 241600Z 27009G19KT 210V020 9999 FEW040 15/02 Q1009
  • 241530Z 25009KT 210V300 9999 FEW040 16/03 Q1009
  • 241500Z VRB06G18KT 9999 FEW040 16/02 Q1008

TAF TAF LERS
Valid from the 24 at 15:00 until the 25 at 15:00 UTC


241400Z 2415/2515 28015G30KT 9999 FEW040 TX14/2513Z TN06/2506Z
BECMG 2415/2417 26010KT



MET'MAP, your aeronautical weather chart ! - Copyright ORBIFLY December 2007 - Disclaimer

ORBIFLY MET'MAP TEAM :

Programming & Development : Alexandra Zaïnal
Concept & original design : Baudouin d'Aumeries
Assistance for programming : Marc-Olivier Méhu
Technical & hardware support : Manuel Goepfert

Contact : metmap@orbifly.com




SOURCES & CREDITS :

   NOAA